Hengoed, United Kingdom
Current Conditions -  °F | °C
As of 11:20 PM on Thursday 18 Dec 2014 (Local Time) from EGFF Reporting Station
Overcast Overcast  
Wind Chill: 11°   Ceiling: 400
Heat Index: 11°   Visibility: 6mi
Dew Point: 11°   Wind: 20mph
Humidity: 100%   Direction: 250°WSW
Pressure: 29.83"   Gusts: NA
Location:  51.64°N, 3.24°W
Report Text: EGFF 182320Z AUTO 25017KT 9999 OVC004 11/11 Q1010 RERA REDZ
Loading
Personal Weather Stations






























Interactive Weather Map New forecast layout! Learn more

10-Day Weather Forecast

Advertisements
Track Severe Weather on mobile